sensor_id;sensor_type;location;lat;lon;timestamp;temperature;humidity
12408;DHT22;6268;48.188;17.134;2024-01-06T00:01:23;6.30;99.90
12408;DHT22;6268;48.188;17.134;2024-01-06T00:03:52;6.20;99.90
12408;DHT22;6268;48.188;17.134;2024-01-06T00:06:21;6.30;99.90
12408;DHT22;6268;48.188;17.134;2024-01-06T00:08:49;6.30;99.90
12408;DHT22;6268;48.188;17.134;2024-01-06T00:11:21;6.30;99.90
12408;DHT22;6268;48.188;17.134;2024-01-06T00:13:50;6.30;99.90
12408;DHT22;6268;48.188;17.134;2024-01-06T00:16:19;6.30;99.90
12408;DHT22;6268;48.188;17.134;2024-01-06T00:18:49;6.30;99.90
12408;DHT22;6268;48.188;17.134;2024-01-06T00:21:18;6.30;99.90
12408;DHT22;6268;48.188;17.134;2024-01-06T00:23:46;6.30;99.90
12408;DHT22;6268;48.188;17.134;2024-01-06T00:26:15;6.30;99.90
12408;DHT22;6268;48.188;17.134;2024-01-06T00:28:43;6.40;99.90
12408;DHT22;6268;48.188;17.134;2024-01-06T00:31:12;6.30;99.90
12408;DHT22;6268;48.188;17.134;2024-01-06T00:33:41;6.40;99.90
12408;DHT22;6268;48.188;17.134;2024-01-06T00:36:11;6.30;99.90
12408;DHT22;6268;48.188;17.134;2024-01-06T00:38:39;6.40;99.90
12408;DHT22;6268;48.188;17.134;2024-01-06T00:41:08;6.30;99.90
12408;DHT22;6268;48.188;17.134;2024-01-06T00:43:37;6.30;99.90
12408;DHT22;6268;48.188;17.134;2024-01-06T00:46:06;6.40;99.90
12408;DHT22;6268;48.188;17.134;2024-01-06T00:48:35;6.40;99.90
12408;DHT22;6268;48.188;17.134;2024-01-06T00:51:04;6.40;99.90
12408;DHT22;6268;48.188;17.134;2024-01-06T00:53:34;6.40;99.90
12408;DHT22;6268;48.188;17.134;2024-01-06T00:56:03;6.40;99.90
12408;DHT22;6268;48.188;17.134;2024-01-06T00:58:32;6.40;99.90
12408;DHT22;6268;48.188;17.134;2024-01-06T01:01:00;6.40;99.90
12408;DHT22;6268;48.188;17.134;2024-01-06T01:03:29;6.50;99.90
12408;DHT22;6268;48.188;17.134;2024-01-06T01:05:58;6.50;99.90
12408;DHT22;6268;48.188;17.134;2024-01-06T01:08:26;6.60;99.90
12408;DHT22;6268;48.188;17.134;2024-01-06T01:10:56;6.60;99.90
12408;DHT22;6268;48.188;17.134;2024-01-06T01:13:25;6.60;99.90
12408;DHT22;6268;48.188;17.134;2024-01-06T01:15:53;6.60;99.90
12408;DHT22;6268;48.188;17.134;2024-01-06T01:18:22;6.60;99.90
12408;DHT22;6268;48.188;17.134;2024-01-06T01:20:51;6.60;99.90
12408;DHT22;6268;48.188;17.134;2024-01-06T01:23:20;6.60;99.90
12408;DHT22;6268;48.188;17.134;2024-01-06T01:25:48;6.60;99.90
12408;DHT22;6268;48.188;17.134;2024-01-06T01:28:18;6.60;99.90
12408;DHT22;6268;48.188;17.134;2024-01-06T01:30:46;6.60;99.90
12408;DHT22;6268;48.188;17.134;2024-01-06T01:33:15;6.60;99.90
12408;DHT22;6268;48.188;17.134;2024-01-06T01:35:44;6.70;99.90
12408;DHT22;6268;48.188;17.134;2024-01-06T01:38:13;6.70;99.90
12408;DHT22;6268;48.188;17.134;2024-01-06T01:40:42;6.70;99.90
12408;DHT22;6268;48.188;17.134;2024-01-06T01:43:18;6.70;99.90
12408;DHT22;6268;48.188;17.134;2024-01-06T01:45:52;6.70;99.90
12408;DHT22;6268;48.188;17.134;2024-01-06T01:48:22;6.70;99.90
12408;DHT22;6268;48.188;17.134;2024-01-06T01:50:53;6.70;99.90
12408;DHT22;6268;48.188;17.134;2024-01-06T01:53:23;6.80;99.90
12408;DHT22;6268;48.188;17.134;2024-01-06T01:55:53;6.70;99.90
12408;DHT22;6268;48.188;17.134;2024-01-06T01:58:24;6.70;99.90
12408;DHT22;6268;48.188;17.134;2024-01-06T02:00:53;6.70;99.90
12408;DHT22;6268;48.188;17.134;2024-01-06T02:03:22;6.70;99.90
12408;DHT22;6268;48.188;17.134;2024-01-06T02:05:52;6.70;99.90
12408;DHT22;6268;48.188;17.134;2024-01-06T02:08:21;6.70;99.90
12408;DHT22;6268;48.188;17.134;2024-01-06T02:10:49;6.70;99.90
12408;DHT22;6268;48.188;17.134;2024-01-06T02:13:18;6.70;99.90
12408;DHT22;6268;48.188;17.134;2024-01-06T02:15:48;6.80;99.90
12408;DHT22;6268;48.188;17.134;2024-01-06T02:18:17;6.80;99.90
12408;DHT22;6268;48.188;17.134;2024-01-06T02:20:46;6.80;99.90
12408;DHT22;6268;48.188;17.134;2024-01-06T02:23:18;6.80;99.90
12408;DHT22;6268;48.188;17.134;2024-01-06T02:25:46;6.80;99.90
12408;DHT22;6268;48.188;17.134;2024-01-06T02:28:15;6.80;99.90
12408;DHT22;6268;48.188;17.134;2024-01-06T02:30:43;6.70;99.90
12408;DHT22;6268;48.188;17.134;2024-01-06T02:33:12;6.70;99.90
12408;DHT22;6268;48.188;17.134;2024-01-06T02:35:41;6.70;99.90
12408;DHT22;6268;48.188;17.134;2024-01-06T02:38:10;6.70;99.90
12408;DHT22;6268;48.188;17.134;2024-01-06T02:40:40;6.70;99.90
12408;DHT22;6268;48.188;17.134;2024-01-06T02:43:10;6.80;99.90
12408;DHT22;6268;48.188;17.134;2024-01-06T02:45:38;6.80;99.90
12408;DHT22;6268;48.188;17.134;2024-01-06T02:48:07;6.80;99.90
12408;DHT22;6268;48.188;17.134;2024-01-06T02:50:36;6.70;99.90
12408;DHT22;6268;48.188;17.134;2024-01-06T02:53:04;6.80;99.90
12408;DHT22;6268;48.188;17.134;2024-01-06T02:55:33;6.70;99.90
12408;DHT22;6268;48.188;17.134;2024-01-06T02:58:03;6.70;99.90
12408;DHT22;6268;48.188;17.134;2024-01-06T03:00:31;6.70;99.90
12408;DHT22;6268;48.188;17.134;2024-01-06T03:03:00;6.60;99.90
12408;DHT22;6268;48.188;17.134;2024-01-06T03:05:29;6.60;99.90
12408;DHT22;6268;48.188;17.134;2024-01-06T03:07:58;6.60;99.90
12408;DHT22;6268;48.188;17.134;2024-01-06T03:10:26;6.60;99.90
12408;DHT22;6268;48.188;17.134;2024-01-06T03:12:55;6.70;99.90
12408;DHT22;6268;48.188;17.134;2024-01-06T03:15:25;6.70;99.90
12408;DHT22;6268;48.188;17.134;2024-01-06T03:17:54;6.60;99.90
12408;DHT22;6268;48.188;17.134;2024-01-06T03:20:22;6.70;99.90
12408;DHT22;6268;48.188;17.134;2024-01-06T03:22:51;6.70;99.90
12408;DHT22;6268;48.188;17.134;2024-01-06T03:25:19;6.70;99.90
12408;DHT22;6268;48.188;17.134;2024-01-06T03:27:48;6.70;99.90
12408;DHT22;6268;48.188;17.134;2024-01-06T03:30:17;6.80;99.90
12408;DHT22;6268;48.188;17.134;2024-01-06T03:32:46;6.80;99.90
12408;DHT22;6268;48.188;17.134;2024-01-06T03:35:15;6.70;99.90
12408;DHT22;6268;48.188;17.134;2024-01-06T03:37:43;6.70;99.90
12408;DHT22;6268;48.188;17.134;2024-01-06T03:40:12;6.80;99.90
12408;DHT22;6268;48.188;17.134;2024-01-06T03:42:41;6.80;99.90
12408;DHT22;6268;48.188;17.134;2024-01-06T03:45:10;6.80;99.90
12408;DHT22;6268;48.188;17.134;2024-01-06T03:47:38;6.80;99.90
12408;DHT22;6268;48.188;17.134;2024-01-06T03:50:09;6.80;99.90
12408;DHT22;6268;48.188;17.134;2024-01-06T03:52:37;6.80;99.90
12408;DHT22;6268;48.188;17.134;2024-01-06T03:55:07;6.80;99.90
12408;DHT22;6268;48.188;17.134;2024-01-06T03:57:36;6.80;99.90
12408;DHT22;6268;48.188;17.134;2024-01-06T04:00:05;6.80;99.90
12408;DHT22;6268;48.188;17.134;2024-01-06T04:02:34;6.80;99.90
12408;DHT22;6268;48.188;17.134;2024-01-06T04:05:03;6.80;99.90
12408;DHT22;6268;48.188;17.134;2024-01-06T04:07:33;6.80;99.90
12408;DHT22;6268;48.188;17.134;2024-01-06T04:10:02;6.80;99.90
12408;DHT22;6268;48.188;17.134;2024-01-06T04:12:31;6.90;99.90
12408;DHT22;6268;48.188;17.134;2024-01-06T04:14:59;6.80;99.90
12408;DHT22;6268;48.188;17.134;2024-01-06T04:17:28;6.80;99.90
12408;DHT22;6268;48.188;17.134;2024-01-06T04:19:56;6.80;99.90
12408;DHT22;6268;48.188;17.134;2024-01-06T04:22:25;6.70;99.90
12408;DHT22;6268;48.188;17.134;2024-01-06T04:24:55;6.70;99.90
12408;DHT22;6268;48.188;17.134;2024-01-06T04:27:23;6.80;99.90
12408;DHT22;6268;48.188;17.134;2024-01-06T04:29:52;6.70;99.90
12408;DHT22;6268;48.188;17.134;2024-01-06T04:32:21;6.80;99.90
12408;DHT22;6268;48.188;17.134;2024-01-06T04:34:49;6.80;99.90
12408;DHT22;6268;48.188;17.134;2024-01-06T04:37:18;6.80;99.90
12408;DHT22;6268;48.188;17.134;2024-01-06T04:39:46;6.80;99.90
12408;DHT22;6268;48.188;17.134;2024-01-06T04:42:16;6.90;99.90
12408;DHT22;6268;48.188;17.134;2024-01-06T04:44:46;6.90;99.90
12408;DHT22;6268;48.188;17.134;2024-01-06T04:47:15;6.90;99.90
12408;DHT22;6268;48.188;17.134;2024-01-06T04:49:43;6.90;99.90
12408;DHT22;6268;48.188;17.134;2024-01-06T04:52:12;6.90;99.90
12408;DHT22;6268;48.188;17.134;2024-01-06T04:54:41;6.90;99.90
12408;DHT22;6268;48.188;17.134;2024-01-06T04:57:09;6.90;99.90
12408;DHT22;6268;48.188;17.134;2024-01-06T04:59:39;6.90;99.90
12408;DHT22;6268;48.188;17.134;2024-01-06T05:02:08;6.90;99.90
12408;DHT22;6268;48.188;17.134;2024-01-06T05:04:37;6.90;99.90
12408;DHT22;6268;48.188;17.134;2024-01-06T05:07:05;6.80;99.90
12408;DHT22;6268;48.188;17.134;2024-01-06T05:09:34;6.80;99.90
12408;DHT22;6268;48.188;17.134;2024-01-06T05:12:03;6.80;99.90
12408;DHT22;6268;48.188;17.134;2024-01-06T05:14:31;6.80;99.90
12408;DHT22;6268;48.188;17.134;2024-01-06T05:17:01;6.80;99.90
12408;DHT22;6268;48.188;17.134;2024-01-06T05:19:30;6.80;99.90
12408;DHT22;6268;48.188;17.134;2024-01-06T05:21:59;6.80;99.90
12408;DHT22;6268;48.188;17.134;2024-01-06T05:24:28;6.80;99.90
12408;DHT22;6268;48.188;17.134;2024-01-06T05:26:56;6.80;99.90
12408;DHT22;6268;48.188;17.134;2024-01-06T05:29:25;6.80;99.90
12408;DHT22;6268;48.188;17.134;2024-01-06T05:31:54;6.90;99.90
12408;DHT22;6268;48.188;17.134;2024-01-06T05:34:24;6.90;99.90
12408;DHT22;6268;48.188;17.134;2024-01-06T05:36:52;6.90;99.90
12408;DHT22;6268;48.188;17.134;2024-01-06T05:39:21;6.90;99.90
12408;DHT22;6268;48.188;17.134;2024-01-06T05:41:50;6.90;99.90
12408;DHT22;6268;48.188;17.134;2024-01-06T05:44:18;6.90;99.90
12408;DHT22;6268;48.188;17.134;2024-01-06T05:46:47;6.90;99.90
12408;DHT22;6268;48.188;17.134;2024-01-06T05:49:15;6.90;99.90
12408;DHT22;6268;48.188;17.134;2024-01-06T05:51:46;6.90;99.90
12408;DHT22;6268;48.188;17.134;2024-01-06T05:54:14;6.90;99.90
12408;DHT22;6268;48.188;17.134;2024-01-06T05:56:43;6.90;99.90
12408;DHT22;6268;48.188;17.134;2024-01-06T05:59:11;6.90;99.90
12408;DHT22;6268;48.188;17.134;2024-01-06T06:01:41;6.90;99.90
12408;DHT22;6268;48.188;17.134;2024-01-06T06:04:11;6.80;99.90
12408;DHT22;6268;48.188;17.134;2024-01-06T06:06:40;6.80;99.90
12408;DHT22;6268;48.188;17.134;2024-01-06T06:09:10;6.80;99.90
12408;DHT22;6268;48.188;17.134;2024-01-06T06:11:39;6.80;99.90
12408;DHT22;6268;48.188;17.134;2024-01-06T06:14:08;6.80;99.90
12408;DHT22;6268;48.188;17.134;2024-01-06T06:16:37;6.80;99.90
12408;DHT22;6268;48.188;17.134;2024-01-06T06:19:05;6.80;99.90
12408;DHT22;6268;48.188;17.134;2024-01-06T06:21:35;6.70;99.90
12408;DHT22;6268;48.188;17.134;2024-01-06T06:24:04;6.70;99.90
12408;DHT22;6268;48.188;17.134;2024-01-06T06:26:34;6.70;99.90
12408;DHT22;6268;48.188;17.134;2024-01-06T06:29:06;6.70;99.90
12408;DHT22;6268;48.188;17.134;2024-01-06T06:31:35;6.60;99.90
12408;DHT22;6268;48.188;17.134;2024-01-06T06:34:04;6.70;99.90
12408;DHT22;6268;48.188;17.134;2024-01-06T06:36:35;6.70;99.90
12408;DHT22;6268;48.188;17.134;2024-01-06T06:39:04;6.70;99.90
12408;DHT22;6268;48.188;17.134;2024-01-06T06:41:34;6.60;99.90
12408;DHT22;6268;48.188;17.134;2024-01-06T06:44:02;6.70;99.90
12408;DHT22;6268;48.188;17.134;2024-01-06T06:46:31;6.70;99.90
12408;DHT22;6268;48.188;17.134;2024-01-06T06:49:00;6.70;99.90
12408;DHT22;6268;48.188;17.134;2024-01-06T06:51:28;6.70;99.90
12408;DHT22;6268;48.188;17.134;2024-01-06T06:53:57;6.70;99.90
12408;DHT22;6268;48.188;17.134;2024-01-06T06:56:26;6.80;99.90
12408;DHT22;6268;48.188;17.134;2024-01-06T06:58:56;6.80;99.90
12408;DHT22;6268;48.188;17.134;2024-01-06T07:01:25;6.80;99.90
12408;DHT22;6268;48.188;17.134;2024-01-06T07:03:53;6.80;99.90
12408;DHT22;6268;48.188;17.134;2024-01-06T07:06:22;6.80;99.90
12408;DHT22;6268;48.188;17.134;2024-01-06T07:08:51;6.80;99.90
12408;DHT22;6268;48.188;17.134;2024-01-06T07:11:19;6.80;99.90
12408;DHT22;6268;48.188;17.134;2024-01-06T07:13:50;6.80;99.90
12408;DHT22;6268;48.188;17.134;2024-01-06T07:16:20;6.90;99.90
12408;DHT22;6268;48.188;17.134;2024-01-06T07:18:48;6.90;99.90
12408;DHT22;6268;48.188;17.134;2024-01-06T07:21:17;6.80;99.90
12408;DHT22;6268;48.188;17.134;2024-01-06T07:23:46;6.90;99.90
12408;DHT22;6268;48.188;17.134;2024-01-06T07:26:14;6.90;99.90
12408;DHT22;6268;48.188;17.134;2024-01-06T07:28:43;6.80;99.90
12408;DHT22;6268;48.188;17.134;2024-01-06T07:31:12;6.80;99.90
12408;DHT22;6268;48.188;17.134;2024-01-06T07:33:42;6.80;99.90
12408;DHT22;6268;48.188;17.134;2024-01-06T07:36:10;6.90;99.90
12408;DHT22;6268;48.188;17.134;2024-01-06T07:38:39;7.00;99.90
12408;DHT22;6268;48.188;17.134;2024-01-06T07:41:07;7.10;99.90
12408;DHT22;6268;48.188;17.134;2024-01-06T07:43:36;7.10;99.90
12408;DHT22;6268;48.188;17.134;2024-01-06T07:46:04;7.10;99.90
12408;DHT22;6268;48.188;17.134;2024-01-06T07:48:34;7.10;99.90
12408;DHT22;6268;48.188;17.134;2024-01-06T07:51:04;7.20;99.90
12408;DHT22;6268;48.188;17.134;2024-01-06T07:53:33;7.20;99.90
12408;DHT22;6268;48.188;17.134;2024-01-06T07:56:01;7.30;99.90
12408;DHT22;6268;48.188;17.134;2024-01-06T07:58:30;7.30;99.90
12408;DHT22;6268;48.188;17.134;2024-01-06T08:01:00;7.20;99.90
12408;DHT22;6268;48.188;17.134;2024-01-06T08:03:29;7.30;99.90
12408;DHT22;6268;48.188;17.134;2024-01-06T08:05:57;7.30;99.90
12408;DHT22;6268;48.188;17.134;2024-01-06T08:08:30;7.20;99.90
12408;DHT22;6268;48.188;17.134;2024-01-06T08:10:59;7.10;99.90
12408;DHT22;6268;48.188;17.134;2024-01-06T08:13:28;7.00;99.90
12408;DHT22;6268;48.188;17.134;2024-01-06T08:15:56;6.90;99.90
12408;DHT22;6268;48.188;17.134;2024-01-06T08:18:25;6.90;99.90
12408;DHT22;6268;48.188;17.134;2024-01-06T08:20:54;6.90;99.90
12408;DHT22;6268;48.188;17.134;2024-01-06T08:23:23;6.90;99.90
12408;DHT22;6268;48.188;17.134;2024-01-06T08:25:53;6.90;99.90
12408;DHT22;6268;48.188;17.134;2024-01-06T08:28:21;6.90;99.90
12408;DHT22;6268;48.188;17.134;2024-01-06T08:30:50;6.80;99.90
12408;DHT22;6268;48.188;17.134;2024-01-06T08:33:19;6.80;99.90
12408;DHT22;6268;48.188;17.134;2024-01-06T08:35:48;6.80;99.90
12408;DHT22;6268;48.188;17.134;2024-01-06T08:38:16;7.00;99.90
12408;DHT22;6268;48.188;17.134;2024-01-06T08:40:45;7.00;99.90
12408;DHT22;6268;48.188;17.134;2024-01-06T08:43:17;7.20;99.90
12408;DHT22;6268;48.188;17.134;2024-01-06T08:45:45;7.20;99.90
12408;DHT22;6268;48.188;17.134;2024-01-06T08:48:15;7.20;99.90
12408;DHT22;6268;48.188;17.134;2024-01-06T08:50:45;7.20;99.90
12408;DHT22;6268;48.188;17.134;2024-01-06T08:53:14;7.20;99.90
12408;DHT22;6268;48.188;17.134;2024-01-06T08:55:43;7.30;99.90
12408;DHT22;6268;48.188;17.134;2024-01-06T08:58:13;7.30;99.90
12408;DHT22;6268;48.188;17.134;2024-01-06T09:00:43;7.40;99.90
12408;DHT22;6268;48.188;17.134;2024-01-06T09:03:13;7.40;99.90
12408;DHT22;6268;48.188;17.134;2024-01-06T09:05:43;7.40;99.90
12408;DHT22;6268;48.188;17.134;2024-01-06T09:08:11;7.40;99.90
12408;DHT22;6268;48.188;17.134;2024-01-06T09:10:40;7.30;99.90
12408;DHT22;6268;48.188;17.134;2024-01-06T09:13:10;7.30;99.90
12408;DHT22;6268;48.188;17.134;2024-01-06T09:15:38;7.40;99.90
12408;DHT22;6268;48.188;17.134;2024-01-06T09:18:09;7.30;99.90
12408;DHT22;6268;48.188;17.134;2024-01-06T09:20:37;7.30;99.90
12408;DHT22;6268;48.188;17.134;2024-01-06T09:23:07;7.40;99.90
12408;DHT22;6268;48.188;17.134;2024-01-06T09:25:35;7.40;99.90
12408;DHT22;6268;48.188;17.134;2024-01-06T09:28:04;7.50;99.90
12408;DHT22;6268;48.188;17.134;2024-01-06T09:30:33;7.40;99.90
12408;DHT22;6268;48.188;17.134;2024-01-06T09:33:01;7.30;99.90
12408;DHT22;6268;48.188;17.134;2024-01-06T09:35:31;7.50;99.90
12408;DHT22;6268;48.188;17.134;2024-01-06T09:38:00;8.30;99.90
12408;DHT22;6268;48.188;17.134;2024-01-06T09:40:31;11.40;99.90
12408;DHT22;6268;48.188;17.134;2024-01-06T09:43:00;12.20;99.90
12408;DHT22;6268;48.188;17.134;2024-01-06T09:45:29;10.50;99.90
12408;DHT22;6268;48.188;17.134;2024-01-06T09:47:59;9.60;99.90
12408;DHT22;6268;48.188;17.134;2024-01-06T09:50:33;8.80;99.90
12408;DHT22;6268;48.188;17.134;2024-01-06T09:53:03;8.40;99.90
12408;DHT22;6268;48.188;17.134;2024-01-06T09:55:34;8.10;99.90
12408;DHT22;6268;48.188;17.134;2024-01-06T09:58:04;8.00;99.90
12408;DHT22;6268;48.188;17.134;2024-01-06T10:00:34;7.80;99.90
12408;DHT22;6268;48.188;17.134;2024-01-06T10:03:02;7.80;99.90
12408;DHT22;6268;48.188;17.134;2024-01-06T10:05:32;7.60;99.90
12408;DHT22;6268;48.188;17.134;2024-01-06T10:08:01;7.60;99.90
12408;DHT22;6268;48.188;17.134;2024-01-06T10:10:33;7.60;99.90
12408;DHT22;6268;48.188;17.134;2024-01-06T10:13:02;7.60;99.90
12408;DHT22;6268;48.188;17.134;2024-01-06T10:15:31;7.50;99.90
12408;DHT22;6268;48.188;17.134;2024-01-06T10:18:00;7.50;99.90
12408;DHT22;6268;48.188;17.134;2024-01-06T10:20:30;7.50;99.90
12408;DHT22;6268;48.188;17.134;2024-01-06T10:23:06;7.50;99.90
12408;DHT22;6268;48.188;17.134;2024-01-06T10:25:35;7.60;99.90
12408;DHT22;6268;48.188;17.134;2024-01-06T10:28:04;7.60;99.90
12408;DHT22;6268;48.188;17.134;2024-01-06T10:30:32;7.70;99.90
12408;DHT22;6268;48.188;17.134;2024-01-06T10:33:01;7.70;99.90
12408;DHT22;6268;48.188;17.134;2024-01-06T10:35:30;7.70;99.90
12408;DHT22;6268;48.188;17.134;2024-01-06T10:37:59;7.60;99.90
12408;DHT22;6268;48.188;17.134;2024-01-06T10:40:29;7.60;99.90
12408;DHT22;6268;48.188;17.134;2024-01-06T10:42:57;7.60;99.90
12408;DHT22;6268;48.188;17.134;2024-01-06T10:45:28;7.60;99.90
12408;DHT22;6268;48.188;17.134;2024-01-06T10:47:58;7.60;99.90
12408;DHT22;6268;48.188;17.134;2024-01-06T10:50:28;7.60;99.90
12408;DHT22;6268;48.188;17.134;2024-01-06T10:52:59;7.60;99.90
12408;DHT22;6268;48.188;17.134;2024-01-06T10:55:29;7.60;99.90
12408;DHT22;6268;48.188;17.134;2024-01-06T10:57:58;7.60;99.90
12408;DHT22;6268;48.188;17.134;2024-01-06T11:00:27;7.60;99.90
12408;DHT22;6268;48.188;17.134;2024-01-06T11:02:57;7.60;99.90
12408;DHT22;6268;48.188;17.134;2024-01-06T11:05:27;7.60;99.90
12408;DHT22;6268;48.188;17.134;2024-01-06T11:07:56;7.60;99.90
12408;DHT22;6268;48.188;17.134;2024-01-06T11:10:29;7.60;99.90
12408;DHT22;6268;48.188;17.134;2024-01-06T11:13:21;7.60;99.90
12408;DHT22;6268;48.188;17.134;2024-01-06T11:15:51;7.60;99.90
12408;DHT22;6268;48.188;17.134;2024-01-06T11:18:34;7.70;99.90
12408;DHT22;6268;48.188;17.134;2024-01-06T11:21:20;7.60;99.90
12408;DHT22;6268;48.188;17.134;2024-01-06T11:24:14;7.60;99.90
12408;DHT22;6268;48.188;17.134;2024-01-06T11:26:49;7.60;99.90
12408;DHT22;6268;48.188;17.134;2024-01-06T11:29:18;7.60;99.90
12408;DHT22;6268;48.188;17.134;2024-01-06T11:32:24;7.70;99.90
12408;DHT22;6268;48.188;17.134;2024-01-06T11:34:54;7.70;99.90
12408;DHT22;6268;48.188;17.134;2024-01-06T11:37:35;7.70;99.90
12408;DHT22;6268;48.188;17.134;2024-01-06T11:40:09;7.70;99.90
12408;DHT22;6268;48.188;17.134;2024-01-06T11:42:42;7.70;99.90
12408;DHT22;6268;48.188;17.134;2024-01-06T11:45:13;7.70;99.90
12408;DHT22;6268;48.188;17.134;2024-01-06T11:47:47;7.70;99.90
12408;DHT22;6268;48.188;17.134;2024-01-06T11:50:17;7.70;99.90
12408;DHT22;6268;48.188;17.134;2024-01-06T11:52:45;7.80;99.90
12408;DHT22;6268;48.188;17.134;2024-01-06T11:55:14;7.80;99.90
12408;DHT22;6268;48.188;17.134;2024-01-06T11:57:47;7.80;99.90
12408;DHT22;6268;48.188;17.134;2024-01-06T12:00:17;7.80;99.90
12408;DHT22;6268;48.188;17.134;2024-01-06T12:02:46;7.80;99.90
12408;DHT22;6268;48.188;17.134;2024-01-06T12:05:16;7.80;99.90
12408;DHT22;6268;48.188;17.134;2024-01-06T12:07:53;7.80;99.90
12408;DHT22;6268;48.188;17.134;2024-01-06T12:10:22;7.90;99.90
12408;DHT22;6268;48.188;17.134;2024-01-06T12:12:57;7.90;99.90
12408;DHT22;6268;48.188;17.134;2024-01-06T12:15:28;7.80;99.90
12408;DHT22;6268;48.188;17.134;2024-01-06T12:17:57;7.80;99.90
12408;DHT22;6268;48.188;17.134;2024-01-06T12:20:26;7.80;99.90
12408;DHT22;6268;48.188;17.134;2024-01-06T12:22:56;7.70;99.90
12408;DHT22;6268;48.188;17.134;2024-01-06T12:25:26;7.70;99.90
12408;DHT22;6268;48.188;17.134;2024-01-06T12:27:58;7.70;99.90
12408;DHT22;6268;48.188;17.134;2024-01-06T12:30:27;7.60;99.90
12408;DHT22;6268;48.188;17.134;2024-01-06T12:32:57;7.60;99.90
12408;DHT22;6268;48.188;17.134;2024-01-06T12:35:26;7.70;99.90
12408;DHT22;6268;48.188;17.134;2024-01-06T12:37:54;7.60;99.90
12408;DHT22;6268;48.188;17.134;2024-01-06T12:40:23;7.60;99.90
12408;DHT22;6268;48.188;17.134;2024-01-06T12:42:53;7.50;99.90
12408;DHT22;6268;48.188;17.134;2024-01-06T12:45:23;7.50;99.90
12408;DHT22;6268;48.188;17.134;2024-01-06T12:47:52;7.50;99.90
12408;DHT22;6268;48.188;17.134;2024-01-06T12:50:21;7.40;99.90
12408;DHT22;6268;48.188;17.134;2024-01-06T12:52:50;7.40;99.90
12408;DHT22;6268;48.188;17.134;2024-01-06T12:55:18;7.30;99.90
12408;DHT22;6268;48.188;17.134;2024-01-06T12:57:47;7.30;99.90
12408;DHT22;6268;48.188;17.134;2024-01-06T13:00:16;7.30;99.90
12408;DHT22;6268;48.188;17.134;2024-01-06T13:02:46;7.20;99.90
12408;DHT22;6268;48.188;17.134;2024-01-06T13:05:15;7.20;99.90
12408;DHT22;6268;48.188;17.134;2024-01-06T13:07:44;7.20;99.90
12408;DHT22;6268;48.188;17.134;2024-01-06T13:10:12;7.20;99.90
12408;DHT22;6268;48.188;17.134;2024-01-06T13:12:41;7.20;99.90
12408;DHT22;6268;48.188;17.134;2024-01-06T13:15:09;7.10;99.90
12408;DHT22;6268;48.188;17.134;2024-01-06T13:17:39;7.10;99.90
12408;DHT22;6268;48.188;17.134;2024-01-06T13:20:10;7.00;99.90
12408;DHT22;6268;48.188;17.134;2024-01-06T13:22:38;7.00;99.90
12408;DHT22;6268;48.188;17.134;2024-01-06T13:25:08;7.00;99.90
12408;DHT22;6268;48.188;17.134;2024-01-06T13:27:37;7.00;99.90
12408;DHT22;6268;48.188;17.134;2024-01-06T13:30:06;6.90;99.90
12408;DHT22;6268;48.188;17.134;2024-01-06T13:32:35;6.90;99.90
12408;DHT22;6268;48.188;17.134;2024-01-06T13:35:04;7.00;99.90
12408;DHT22;6268;48.188;17.134;2024-01-06T13:37:35;7.00;99.90
12408;DHT22;6268;48.188;17.134;2024-01-06T13:40:05;7.00;99.90
12408;DHT22;6268;48.188;17.134;2024-01-06T13:42:35;7.00;99.90
12408;DHT22;6268;48.188;17.134;2024-01-06T13:45:04;7.00;99.90
12408;DHT22;6268;48.188;17.134;2024-01-06T13:47:33;6.90;99.90
12408;DHT22;6268;48.188;17.134;2024-01-06T13:50:02;6.90;99.90
12408;DHT22;6268;48.188;17.134;2024-01-06T13:52:30;6.90;99.90
12408;DHT22;6268;48.188;17.134;2024-01-06T13:55:00;6.80;99.90
12408;DHT22;6268;48.188;17.134;2024-01-06T13:57:29;6.70;99.90
12408;DHT22;6268;48.188;17.134;2024-01-06T13:59:58;6.80;99.90
12408;DHT22;6268;48.188;17.134;2024-01-06T14:02:27;6.70;99.90
12408;DHT22;6268;48.188;17.134;2024-01-06T14:04:56;6.70;99.90
12408;DHT22;6268;48.188;17.134;2024-01-06T14:07:25;6.80;99.90
12408;DHT22;6268;48.188;17.134;2024-01-06T14:09:54;6.80;99.90
12408;DHT22;6268;48.188;17.134;2024-01-06T14:12:24;6.80;99.90
12408;DHT22;6268;48.188;17.134;2024-01-06T14:14:52;6.80;99.90
12408;DHT22;6268;48.188;17.134;2024-01-06T14:17:21;6.70;99.90
12408;DHT22;6268;48.188;17.134;2024-01-06T14:19:50;6.70;99.90
12408;DHT22;6268;48.188;17.134;2024-01-06T14:22:19;6.70;99.90
12408;DHT22;6268;48.188;17.134;2024-01-06T14:24:48;6.70;99.90
12408;DHT22;6268;48.188;17.134;2024-01-06T14:27:17;7.00;99.90
12408;DHT22;6268;48.188;17.134;2024-01-06T14:29:47;7.10;99.90
12408;DHT22;6268;48.188;17.134;2024-01-06T14:32:15;7.10;99.90
12408;DHT22;6268;48.188;17.134;2024-01-06T14:34:44;7.30;99.90
12408;DHT22;6268;48.188;17.134;2024-01-06T14:37:12;7.20;99.90
12408;DHT22;6268;48.188;17.134;2024-01-06T14:39:41;7.10;99.90
12408;DHT22;6268;48.188;17.134;2024-01-06T14:42:09;7.00;99.90
12408;DHT22;6268;48.188;17.134;2024-01-06T14:44:38;6.90;99.90
12408;DHT22;6268;48.188;17.134;2024-01-06T14:47:08;6.90;99.90
12408;DHT22;6268;48.188;17.134;2024-01-06T14:49:37;6.90;99.90
12408;DHT22;6268;48.188;17.134;2024-01-06T14:52:06;6.90;99.90
12408;DHT22;6268;48.188;17.134;2024-01-06T14:54:35;6.90;99.90
12408;DHT22;6268;48.188;17.134;2024-01-06T14:57:04;6.80;99.90
12408;DHT22;6268;48.188;17.134;2024-01-06T14:59:33;6.80;99.90
12408;DHT22;6268;48.188;17.134;2024-01-06T15:02:05;6.80;99.90
12408;DHT22;6268;48.188;17.134;2024-01-06T15:04:37;6.70;99.90
12408;DHT22;6268;48.188;17.134;2024-01-06T15:07:05;6.60;99.90
12408;DHT22;6268;48.188;17.134;2024-01-06T15:09:37;6.60;99.90
12408;DHT22;6268;48.188;17.134;2024-01-06T15:12:06;6.60;99.90
12408;DHT22;6268;48.188;17.134;2024-01-06T15:14:35;6.60;99.90
12408;DHT22;6268;48.188;17.134;2024-01-06T15:17:03;6.60;99.90
12408;DHT22;6268;48.188;17.134;2024-01-06T15:19:32;6.60;99.90
12408;DHT22;6268;48.188;17.134;2024-01-06T15:22:02;6.60;99.90
12408;DHT22;6268;48.188;17.134;2024-01-06T15:24:31;6.60;99.90
12408;DHT22;6268;48.188;17.134;2024-01-06T15:27:00;6.50;99.90
12408;DHT22;6268;48.188;17.134;2024-01-06T15:29:28;6.50;99.90
12408;DHT22;6268;48.188;17.134;2024-01-06T15:31:57;6.50;99.90
12408;DHT22;6268;48.188;17.134;2024-01-06T15:34:26;6.60;99.90
12408;DHT22;6268;48.188;17.134;2024-01-06T15:36:55;6.60;99.90
12408;DHT22;6268;48.188;17.134;2024-01-06T15:39:25;6.60;99.90
12408;DHT22;6268;48.188;17.134;2024-01-06T15:41:54;6.60;99.90
12408;DHT22;6268;48.188;17.134;2024-01-06T15:44:22;6.60;99.90
12408;DHT22;6268;48.188;17.134;2024-01-06T15:46:51;6.60;99.90
12408;DHT22;6268;48.188;17.134;2024-01-06T15:49:19;6.60;99.90
12408;DHT22;6268;48.188;17.134;2024-01-06T15:51:48;6.60;99.90
12408;DHT22;6268;48.188;17.134;2024-01-06T15:54:17;6.70;99.90
12408;DHT22;6268;48.188;17.134;2024-01-06T15:56:50;6.90;99.90
12408;DHT22;6268;48.188;17.134;2024-01-06T15:59:19;6.90;99.90